• Join FlightAware (Why Join?)
  • Login
  • US Flag GB Flag 
23:58 EDT


 

Airport Tracker/Info


-or-


 

Live Flight TrackerFlight Track Log ✈ CTL13 ✈ 09-Apr-2013 ✈ KMDW - KGRR

Flight Track Log - Related Links

Times and Time Zones

All times are in EDT time to prevent confusion due to time zone crossing. See the CTL13 flight status page for this flight to view local times or setup timezone preferences in your user account.

Time Position Orientation Groundspeed Altitude Reporting Facility
EDT Latitude Longitude Course Direction KTS MPH feet Rate Location/Type
22:19 41.8000 -87.6333 90° East 142 163 3,800  Level Chicago TRACON
22:20 41.8000 -87.5833 90° East 146 168 4,900 1,020 Climbing Chicago TRACON
22:21 41.8000 -87.5333 90° East 152 175 5,900 480 Climbing Chicago TRACON
22:22 41.8000 -87.4667 90° East 187 215 5,900  Level Chicago TRACON
22:23 41.7787 -87.3590 93° East  Level FlightAware Approximate
22:23 41.8050 -87.3931 85° East 183 211 5,900  Level Chicago Center
22:24 41.8078 -87.3200 87° East 196 226 5,900  Level Chicago Center
22:25 41.8125 -87.2311 86° East 200 230 5,900  Level Chicago Center
22:26 41.8150 -87.1581 87° East 198 228 5,900  Level Chicago Center
22:27 41.8189 -87.0847 86° East 200 230 5,900  Level Chicago Center
22:28 41.8453 -87.0244 60° Northeast 197 227 5,900  Level Chicago Center
22:29 41.8817 -86.9733 46° Northeast 192 221 5,900 -120 Level Chicago Center
22:30 41.9161 -86.9203 49° Northeast 191 220 5,700 -420 Descending Chicago Center
22:31 41.9547 -86.8603 49° Northeast 210 242 5,100 -420 Descending Chicago Center
22:32 41.9914 -86.8036 49° Northeast 205 236 4,900 -120 Descending Chicago Center
22:33 42.0375 -86.7439 44° Northeast 195 224 4,900  Level Chicago Center
22:34 42.0728 -86.6925 47° Northeast 190 219 4,900  Level Chicago Center
22:35 42.1086 -86.6397 48° Northeast 190 219 4,900  Level Chicago Center
22:36 42.1431 -86.5867 49° Northeast 190 219 4,900  Level Chicago Center
22:37 42.1789 -86.5344 47° Northeast 190 219 4,900 -180 Level Chicago Center
22:38 42.2175 -86.4828 45° Northeast 193 222 4,600 -540 Descending Chicago Center
22:39 42.2561 -86.4233 49° Northeast 206 237 3,900 -660 Descending Chicago Center
22:40 42.2994 -86.3600 47° Northeast 203 234 3,300 -540 Descending Chicago Center
22:41 42.3283 -86.2978 58° Northeast 198 228 2,900 -240 Descending Chicago Center
22:42 42.3547 -86.2475 55° Northeast 177 204 2,900  Level Chicago Center
22:43 42.3850 -86.2019 48° Northeast 167 192 2,900  Level Chicago Center
22:44 42.4119 -86.1503 55° Northeast 166 191 2,900  Level Chicago Center
22:45 42.4397 -86.0994 53° Northeast 168 193 2,900  Level Chicago Center
22:46 42.4700 -86.0525 49° Northeast 167 192 2,900  Level Chicago Center
22:47 42.4958 -86.0011 56° Northeast 166 191 2,900  Level Chicago Center
22:48 42.5244 -85.9522 52° Northeast 167 192 2,900  Level Chicago Center
22:49 42.5578 -85.8931 53° Northeast 166 191 2,900  Level Chicago Center
22:50 42.5850 -85.8444 53° Northeast 164 189 2,900  Level Chicago Center
22:51 42.6131 -85.7978 51° Northeast 162 186 2,900  Level Chicago Center
22:52 42.6397 -85.7503 53° Northeast 160 184 2,900  Level Chicago Center
22:53 42.6656 -85.7042 53° Northeast 157 181 2,900  Level Chicago Center
22:54 42.6919 -85.6600 51° Northeast 152 175 2,900  Level Chicago Center
22:55 42.7086 -85.6083 66° East 159 183 2,900  Level Chicago Center
22:56 42.7200 -85.5533 74° East 155 178 2,900  Level Chicago Center
22:57 42.7378 -85.4956 67° East 145 167 2,900 -180 Level Chicago Center
22:58 42.7761 -85.4942 North 143 165 2,600 -480 Descending Chicago Center
22:59 42.8117 -85.5022 351° North 138 159 2,000 -540 Descending Chicago Center
23:00 42.8431 -85.5086 352° North 126 145 1,500 -540 Descending Chicago Center
23:02 42.8694 -85.5147 350° North 120 138 1,000 -540 Descending Chicago Center
23:03 42.8667 -85.5167 56° Northeast  Level FlightAware Approximate
23:10 42.8808 -85.5228 56° Northeast  Level Estimated